Terminal Aerodrome Forecast
Issued by NWS Sioux Falls, SD

Home | Current Version | Previous Version | Graphics & Text | Print | Product List | Glossary Off
Versions: 1 2 3 4 5 6 7 8 9 10 11 12 13 14 15 16 17 18

000
FTUS43 KFSD 290323 AAA
TAFHON
TAF AMD
KHON 290323Z 2903/2924 04009KT P6SM OVC012
      TEMPO 2903/2906 2SM -SN BKN030 OVC060
     FM290600 02010KT P6SM OVC020
     FM291400 35013G19KT P6SM BKN050
     FM292200 34010KT P6SM SCT120=

USA.gov is the U.S. government's official web portal to all federal, state and local government web resources and services.